sensor_id;sensor_type;location;lat;lon;timestamp;P1;durP1;ratioP1;P2;durP2;ratioP2
61590;SDS011;71994;52.410;-1.966;2023-09-18T00:01:07;9.25;;;7.35;;
61590;SDS011;71994;52.410;-1.966;2023-09-18T00:04:13;9.85;;;7.47;;
61590;SDS011;71994;52.410;-1.966;2023-09-18T00:07:23;7.75;;;6.95;;
61590;SDS011;71994;52.410;-1.966;2023-09-18T00:10:30;8.02;;;6.88;;
61590;SDS011;71994;52.410;-1.966;2023-09-18T00:13:37;10.65;;;7.38;;
61590;SDS011;71994;52.410;-1.966;2023-09-18T00:16:44;7.35;;;6.38;;
61590;SDS011;71994;52.410;-1.966;2023-09-18T00:20:07;7.55;;;6.72;;
61590;SDS011;71994;52.410;-1.966;2023-09-18T00:23:31;8.02;;;6.88;;
61590;SDS011;71994;52.410;-1.966;2023-09-18T00:26:53;7.82;;;7.03;;
61590;SDS011;71994;52.410;-1.966;2023-09-18T00:30:16;8.13;;;6.47;;
61590;SDS011;71994;52.410;-1.966;2023-09-18T00:33:39;7.70;;;6.18;;
61590;SDS011;71994;52.410;-1.966;2023-09-18T00:37:01;8.73;;;7.35;;
61590;SDS011;71994;52.410;-1.966;2023-09-18T00:40:27;7.90;;;6.80;;
61590;SDS011;71994;52.410;-1.966;2023-09-18T00:43:50;7.25;;;6.07;;
61590;SDS011;71994;52.410;-1.966;2023-09-18T00:47:12;8.65;;;5.75;;
61590;SDS011;71994;52.410;-1.966;2023-09-18T00:50:36;7.97;;;6.43;;
61590;SDS011;71994;52.410;-1.966;2023-09-18T00:53:59;7.82;;;6.65;;
61590;SDS011;71994;52.410;-1.966;2023-09-18T00:57:25;7.32;;;6.63;;
61590;SDS011;71994;52.410;-1.966;2023-09-18T01:00:47;8.43;;;6.40;;
61590;SDS011;71994;52.410;-1.966;2023-09-18T01:04:18;7.82;;;6.47;;
61590;SDS011;71994;52.410;-1.966;2023-09-18T01:07:40;7.50;;;6.30;;
61590;SDS011;71994;52.410;-1.966;2023-09-18T01:11:04;8.23;;;6.65;;
61590;SDS011;71994;52.410;-1.966;2023-09-18T01:14:17;7.50;;;6.32;;
61590;SDS011;71994;52.410;-1.966;2023-09-18T01:17:26;7.80;;;6.65;;
61590;SDS011;71994;52.410;-1.966;2023-09-18T01:20:33;7.90;;;6.40;;
61590;SDS011;71994;52.410;-1.966;2023-09-18T01:23:42;7.75;;;6.38;;
61590;SDS011;71994;52.410;-1.966;2023-09-18T01:26:48;7.73;;;6.27;;
61590;SDS011;71994;52.410;-1.966;2023-09-18T01:29:56;7.80;;;6.63;;
61590;SDS011;71994;52.410;-1.966;2023-09-18T01:33:04;7.53;;;6.70;;
61590;SDS011;71994;52.410;-1.966;2023-09-18T01:36:11;8.98;;;6.50;;
61590;SDS011;71994;52.410;-1.966;2023-09-18T01:39:37;7.00;;;6.22;;
61590;SDS011;71994;52.410;-1.966;2023-09-18T01:43:01;7.38;;;6.55;;
61590;SDS011;71994;52.410;-1.966;2023-09-18T01:46:26;7.43;;;6.35;;
61590;SDS011;71994;52.410;-1.966;2023-09-18T01:49:51;7.35;;;6.45;;
61590;SDS011;71994;52.410;-1.966;2023-09-18T01:53:13;8.13;;;6.45;;
61590;SDS011;71994;52.410;-1.966;2023-09-18T01:56:39;7.13;;;6.18;;
61590;SDS011;71994;52.410;-1.966;2023-09-18T01:59:45;8.03;;;6.40;;
61590;SDS011;71994;52.410;-1.966;2023-09-18T02:02:51;6.93;;;6.20;;
61590;SDS011;71994;52.410;-1.966;2023-09-18T02:05:58;8.07;;;6.70;;
61590;SDS011;71994;52.410;-1.966;2023-09-18T02:09:07;6.90;;;6.07;;
61590;SDS011;71994;52.410;-1.966;2023-09-18T02:12:17;7.70;;;5.97;;
61590;SDS011;71994;52.410;-1.966;2023-09-18T02:15:24;7.75;;;6.15;;
61590;SDS011;71994;52.410;-1.966;2023-09-18T02:18:35;7.53;;;6.22;;
61590;SDS011;71994;52.410;-1.966;2023-09-18T02:21:42;7.45;;;6.35;;
61590;SDS011;71994;52.410;-1.966;2023-09-18T02:24:51;9.13;;;6.17;;
61590;SDS011;71994;52.410;-1.966;2023-09-18T02:28:00;7.55;;;6.13;;
61590;SDS011;71994;52.410;-1.966;2023-09-18T02:31:08;6.55;;;5.85;;
61590;SDS011;71994;52.410;-1.966;2023-09-18T02:34:16;7.45;;;5.68;;
61590;SDS011;71994;52.410;-1.966;2023-09-18T02:37:23;7.15;;;5.82;;
61590;SDS011;71994;52.410;-1.966;2023-09-18T02:40:34;7.47;;;6.15;;
61590;SDS011;71994;52.410;-1.966;2023-09-18T02:43:43;7.13;;;5.75;;
61590;SDS011;71994;52.410;-1.966;2023-09-18T02:49:57;6.63;;;5.57;;
61590;SDS011;71994;52.410;-1.966;2023-09-18T02:53:05;6.68;;;5.60;;
61590;SDS011;71994;52.410;-1.966;2023-09-18T02:56:12;6.97;;;5.28;;
61590;SDS011;71994;52.410;-1.966;2023-09-18T02:59:38;5.90;;;4.97;;
61590;SDS011;71994;52.410;-1.966;2023-09-18T03:03:00;5.57;;;5.03;;
61590;SDS011;71994;52.410;-1.966;2023-09-18T03:06:22;5.68;;;5.07;;
61590;SDS011;71994;52.410;-1.966;2023-09-18T03:09:45;5.80;;;5.20;;
61590;SDS011;71994;52.410;-1.966;2023-09-18T03:13:11;6.32;;;4.88;;
61590;SDS011;71994;52.410;-1.966;2023-09-18T03:16:22;6.37;;;4.90;;
61590;SDS011;71994;52.410;-1.966;2023-09-18T03:19:28;5.77;;;5.13;;
61590;SDS011;71994;52.410;-1.966;2023-09-18T03:22:35;5.28;;;4.78;;
61590;SDS011;71994;52.410;-1.966;2023-09-18T03:25:42;6.85;;;5.10;;
61590;SDS011;71994;52.410;-1.966;2023-09-18T03:28:49;6.18;;;5.03;;
61590;SDS011;71994;52.410;-1.966;2023-09-18T03:31:59;5.57;;;4.82;;
61590;SDS011;71994;52.410;-1.966;2023-09-18T03:35:08;5.78;;;5.13;;
61590;SDS011;71994;52.410;-1.966;2023-09-18T03:38:20;5.20;;;4.70;;
61590;SDS011;71994;52.410;-1.966;2023-09-18T03:41:27;5.65;;;4.93;;
61590;SDS011;71994;52.410;-1.966;2023-09-18T03:44:36;6.63;;;5.00;;
61590;SDS011;71994;52.410;-1.966;2023-09-18T03:47:50;5.80;;;4.90;;
61590;SDS011;71994;52.410;-1.966;2023-09-18T03:50:57;5.95;;;4.75;;
61590;SDS011;71994;52.410;-1.966;2023-09-18T03:54:07;6.13;;;4.80;;
61590;SDS011;71994;52.410;-1.966;2023-09-18T03:57:15;5.55;;;4.82;;
61590;SDS011;71994;52.410;-1.966;2023-09-18T04:00:23;6.05;;;4.97;;
61590;SDS011;71994;52.410;-1.966;2023-09-18T04:03:48;5.47;;;4.75;;
61590;SDS011;71994;52.410;-1.966;2023-09-18T04:06:56;7.10;;;5.20;;
61590;SDS011;71994;52.410;-1.966;2023-09-18T04:10:03;6.32;;;5.25;;
61590;SDS011;71994;52.410;-1.966;2023-09-18T04:13:18;5.75;;;5.15;;
61590;SDS011;71994;52.410;-1.966;2023-09-18T04:16:33;7.70;;;5.10;;
61590;SDS011;71994;52.410;-1.966;2023-09-18T04:19:47;5.90;;;4.88;;
61590;SDS011;71994;52.410;-1.966;2023-09-18T04:26:19;4.97;;;4.47;;
61590;SDS011;71994;52.410;-1.966;2023-09-18T04:29:26;5.72;;;4.80;;
61590;SDS011;71994;52.410;-1.966;2023-09-18T04:32:33;5.70;;;4.38;;
61590;SDS011;71994;52.410;-1.966;2023-09-18T04:35:43;4.90;;;4.40;;
61590;SDS011;71994;52.410;-1.966;2023-09-18T04:38:49;4.88;;;4.38;;
61590;SDS011;71994;52.410;-1.966;2023-09-18T04:41:56;5.38;;;4.20;;
61590;SDS011;71994;52.410;-1.966;2023-09-18T04:45:03;4.65;;;3.97;;
61590;SDS011;71994;52.410;-1.966;2023-09-18T04:48:27;4.93;;;4.07;;
61590;SDS011;71994;52.410;-1.966;2023-09-18T04:51:52;5.35;;;4.13;;
61590;SDS011;71994;52.410;-1.966;2023-09-18T04:55:15;4.15;;;3.75;;
61590;SDS011;71994;52.410;-1.966;2023-09-18T04:58:38;4.55;;;3.83;;
61590;SDS011;71994;52.410;-1.966;2023-09-18T05:02:01;5.65;;;3.80;;
61590;SDS011;71994;52.410;-1.966;2023-09-18T05:05:07;3.80;;;3.40;;
61590;SDS011;71994;52.410;-1.966;2023-09-18T05:08:17;5.10;;;3.63;;
61590;SDS011;71994;52.410;-1.966;2023-09-18T05:11:23;4.30;;;3.80;;
61590;SDS011;71994;52.410;-1.966;2023-09-18T05:14:29;3.92;;;3.40;;
61590;SDS011;71994;52.410;-1.966;2023-09-18T05:17:39;4.68;;;3.45;;
61590;SDS011;71994;52.410;-1.966;2023-09-18T05:20:49;4.55;;;3.55;;
61590;SDS011;71994;52.410;-1.966;2023-09-18T05:23:59;3.55;;;3.20;;
61590;SDS011;71994;52.410;-1.966;2023-09-18T05:27:07;4.05;;;3.50;;
61590;SDS011;71994;52.410;-1.966;2023-09-18T05:30:19;3.95;;;3.45;;
61590;SDS011;71994;52.410;-1.966;2023-09-18T05:33:28;4.25;;;3.20;;
61590;SDS011;71994;52.410;-1.966;2023-09-18T05:36:34;4.30;;;3.13;;
61590;SDS011;71994;52.410;-1.966;2023-09-18T05:39:44;5.15;;;3.17;;
61590;SDS011;71994;52.410;-1.966;2023-09-18T05:42:50;3.83;;;3.30;;
61590;SDS011;71994;52.410;-1.966;2023-09-18T05:45:57;3.53;;;3.05;;
61590;SDS011;71994;52.410;-1.966;2023-09-18T05:49:03;4.72;;;3.30;;
61590;SDS011;71994;52.410;-1.966;2023-09-18T05:52:10;3.70;;;2.90;;
61590;SDS011;71994;52.410;-1.966;2023-09-18T05:55:21;3.47;;;3.17;;
61590;SDS011;71994;52.410;-1.966;2023-09-18T05:58:28;5.23;;;3.23;;
61590;SDS011;71994;52.410;-1.966;2023-09-18T06:01:34;4.38;;;3.30;;
61590;SDS011;71994;52.410;-1.966;2023-09-18T06:04:40;4.05;;;3.00;;
61590;SDS011;71994;52.410;-1.966;2023-09-18T06:07:47;4.97;;;3.35;;
61590;SDS011;71994;52.410;-1.966;2023-09-18T06:10:57;4.28;;;3.15;;
61590;SDS011;71994;52.410;-1.966;2023-09-18T06:14:03;4.68;;;3.20;;
61590;SDS011;71994;52.410;-1.966;2023-09-18T06:17:10;4.35;;;3.30;;
61590;SDS011;71994;52.410;-1.966;2023-09-18T06:20:17;5.78;;;3.17;;
61590;SDS011;71994;52.410;-1.966;2023-09-18T06:23:24;3.47;;;3.03;;
61590;SDS011;71994;52.410;-1.966;2023-09-18T06:26:33;3.85;;;3.00;;
61590;SDS011;71994;52.410;-1.966;2023-09-18T06:29:40;3.80;;;2.87;;
61590;SDS011;71994;52.410;-1.966;2023-09-18T06:32:46;4.53;;;3.20;;
61590;SDS011;71994;52.410;-1.966;2023-09-18T06:35:55;4.57;;;3.38;;
61590;SDS011;71994;52.410;-1.966;2023-09-18T06:42:12;3.45;;;2.88;;
61590;SDS011;71994;52.410;-1.966;2023-09-18T06:45:18;3.95;;;3.03;;
61590;SDS011;71994;52.410;-1.966;2023-09-18T06:48:27;3.90;;;2.72;;
61590;SDS011;71994;52.410;-1.966;2023-09-18T06:51:35;3.45;;;2.88;;
61590;SDS011;71994;52.410;-1.966;2023-09-18T06:54:43;4.95;;;2.88;;
61590;SDS011;71994;52.410;-1.966;2023-09-18T06:57:53;4.00;;;3.25;;
61590;SDS011;71994;52.410;-1.966;2023-09-18T07:01:16;3.53;;;2.95;;
61590;SDS011;71994;52.410;-1.966;2023-09-18T07:04:39;3.17;;;2.80;;
61590;SDS011;71994;52.410;-1.966;2023-09-18T07:08:04;5.00;;;2.97;;
61590;SDS011;71994;52.410;-1.966;2023-09-18T07:11:30;4.93;;;3.08;;
61590;SDS011;71994;52.410;-1.966;2023-09-18T07:14:56;3.28;;;2.83;;
61590;SDS011;71994;52.410;-1.966;2023-09-18T07:18:21;4.00;;;2.97;;
61590;SDS011;71994;52.410;-1.966;2023-09-18T07:21:44;4.82;;;2.80;;
61590;SDS011;71994;52.410;-1.966;2023-09-18T07:25:08;4.93;;;2.72;;
61590;SDS011;71994;52.410;-1.966;2023-09-18T07:28:30;4.53;;;3.03;;
61590;SDS011;71994;52.410;-1.966;2023-09-18T07:31:56;6.13;;;2.95;;
61590;SDS011;71994;52.410;-1.966;2023-09-18T07:35:20;3.83;;;2.95;;
61590;SDS011;71994;52.410;-1.966;2023-09-18T07:38:43;3.00;;;2.53;;
61590;SDS011;71994;52.410;-1.966;2023-09-18T07:42:10;4.18;;;2.60;;
61590;SDS011;71994;52.410;-1.966;2023-09-18T07:45:33;5.95;;;2.72;;
61590;SDS011;71994;52.410;-1.966;2023-09-18T07:48:59;3.38;;;2.83;;
61590;SDS011;71994;52.410;-1.966;2023-09-18T07:52:06;4.32;;;2.63;;
61590;SDS011;71994;52.410;-1.966;2023-09-18T07:55:12;4.20;;;2.47;;
61590;SDS011;71994;52.410;-1.966;2023-09-18T07:58:18;5.82;;;2.60;;
61590;SDS011;71994;52.410;-1.966;2023-09-18T08:01:26;3.35;;;2.55;;
61590;SDS011;71994;52.410;-1.966;2023-09-18T08:04:41;7.70;;;2.72;;
61590;SDS011;71994;52.410;-1.966;2023-09-18T08:08:04;3.72;;;2.28;;
61590;SDS011;71994;52.410;-1.966;2023-09-18T08:11:23;5.57;;;2.70;;
61590;SDS011;71994;52.410;-1.966;2023-09-18T08:14:46;3.13;;;2.60;;
61590;SDS011;71994;52.410;-1.966;2023-09-18T08:18:08;2.83;;;2.33;;
61590;SDS011;71994;52.410;-1.966;2023-09-18T08:21:35;3.80;;;2.30;;
61590;SDS011;71994;52.410;-1.966;2023-09-18T08:24:57;3.33;;;2.38;;
61590;SDS011;71994;52.410;-1.966;2023-09-18T08:28:22;3.78;;;2.30;;
61590;SDS011;71994;52.410;-1.966;2023-09-18T08:31:47;3.25;;;2.40;;
61590;SDS011;71994;52.410;-1.966;2023-09-18T08:35:09;2.90;;;2.13;;
61590;SDS011;71994;52.410;-1.966;2023-09-18T08:38:35;3.33;;;2.35;;
61590;SDS011;71994;52.410;-1.966;2023-09-18T08:41:59;2.58;;;2.10;;
61590;SDS011;71994;52.410;-1.966;2023-09-18T08:45:26;3.95;;;2.30;;
61590;SDS011;71994;52.410;-1.966;2023-09-18T08:48:53;2.72;;;2.17;;
61590;SDS011;71994;52.410;-1.966;2023-09-18T08:52:18;2.63;;;1.92;;
61590;SDS011;71994;52.410;-1.966;2023-09-18T08:55:44;2.83;;;2.03;;
61590;SDS011;71994;52.410;-1.966;2023-09-18T08:59:07;3.13;;;2.10;;
61590;SDS011;71994;52.410;-1.966;2023-09-18T09:02:29;3.22;;;2.08;;
61590;SDS011;71994;52.410;-1.966;2023-09-18T09:05:52;3.33;;;2.10;;
61590;SDS011;71994;52.410;-1.966;2023-09-18T09:09:15;2.90;;;2.00;;
61590;SDS011;71994;52.410;-1.966;2023-09-18T09:12:52;2.60;;;2.00;;
61590;SDS011;71994;52.410;-1.966;2023-09-18T09:16:02;3.80;;;1.90;;
61590;SDS011;71994;52.410;-1.966;2023-09-18T09:19:09;2.55;;;1.85;;
61590;SDS011;71994;52.410;-1.966;2023-09-18T09:22:19;3.42;;;1.83;;
61590;SDS011;71994;52.410;-1.966;2023-09-18T09:25:26;4.38;;;1.80;;
61590;SDS011;71994;52.410;-1.966;2023-09-18T09:28:37;2.67;;;1.77;;
61590;SDS011;71994;52.410;-1.966;2023-09-18T09:31:45;3.05;;;2.03;;
61590;SDS011;71994;52.410;-1.966;2023-09-18T09:34:54;2.40;;;1.88;;
61590;SDS011;71994;52.410;-1.966;2023-09-18T09:38:09;3.10;;;1.80;;
61590;SDS011;71994;52.410;-1.966;2023-09-18T09:41:18;2.10;;;1.45;;
61590;SDS011;71994;52.410;-1.966;2023-09-18T09:44:27;2.63;;;1.52;;
61590;SDS011;71994;52.410;-1.966;2023-09-18T09:47:34;2.93;;;1.77;;
61590;SDS011;71994;52.410;-1.966;2023-09-18T09:50:44;2.00;;;1.55;;
61590;SDS011;71994;52.410;-1.966;2023-09-18T09:53:51;3.45;;;1.80;;
61590;SDS011;71994;52.410;-1.966;2023-09-18T09:56:57;4.10;;;1.63;;
61590;SDS011;71994;52.410;-1.966;2023-09-18T10:00:16;2.15;;;1.52;;
61590;SDS011;71994;52.410;-1.966;2023-09-18T10:03:55;2.35;;;1.67;;
61590;SDS011;71994;52.410;-1.966;2023-09-18T10:07:19;3.30;;;1.80;;
61590;SDS011;71994;52.410;-1.966;2023-09-18T10:10:29;2.75;;;1.88;;
61590;SDS011;71994;52.410;-1.966;2023-09-18T10:13:40;2.13;;;1.70;;
61590;SDS011;71994;52.410;-1.966;2023-09-18T10:16:53;2.80;;;1.60;;
61590;SDS011;71994;52.410;-1.966;2023-09-18T10:20:05;6.22;;;2.05;;
61590;SDS011;71994;52.410;-1.966;2023-09-18T10:23:24;4.55;;;2.10;;
61590;SDS011;71994;52.410;-1.966;2023-09-18T10:26:38;2.67;;;1.77;;
61590;SDS011;71994;52.410;-1.966;2023-09-18T10:30:05;2.70;;;1.80;;
61590;SDS011;71994;52.410;-1.966;2023-09-18T10:33:17;2.95;;;1.95;;
61590;SDS011;71994;52.410;-1.966;2023-09-18T10:36:25;2.55;;;1.75;;
61590;SDS011;71994;52.410;-1.966;2023-09-18T10:42:42;3.05;;;1.67;;
61590;SDS011;71994;52.410;-1.966;2023-09-18T10:45:51;2.80;;;1.80;;
61590;SDS011;71994;52.410;-1.966;2023-09-18T10:49:01;2.15;;;1.60;;
61590;SDS011;71994;52.410;-1.966;2023-09-18T10:52:10;2.85;;;1.80;;
61590;SDS011;71994;52.410;-1.966;2023-09-18T10:55:18;3.47;;;1.63;;
61590;SDS011;71994;52.410;-1.966;2023-09-18T10:58:24;3.22;;;1.80;;
61590;SDS011;71994;52.410;-1.966;2023-09-18T11:01:36;2.83;;;1.90;;
61590;SDS011;71994;52.410;-1.966;2023-09-18T11:05:01;2.65;;;1.63;;
61590;SDS011;71994;52.410;-1.966;2023-09-18T11:08:24;3.83;;;1.67;;
61590;SDS011;71994;52.410;-1.966;2023-09-18T11:11:37;3.97;;;1.90;;
61590;SDS011;71994;52.410;-1.966;2023-09-18T11:14:44;2.72;;;1.60;;
61590;SDS011;71994;52.410;-1.966;2023-09-18T11:17:58;2.53;;;2.00;;
61590;SDS011;71994;52.410;-1.966;2023-09-18T11:21:11;3.33;;;1.75;;
61590;SDS011;71994;52.410;-1.966;2023-09-18T11:24:21;3.85;;;1.83;;
61590;SDS011;71994;52.410;-1.966;2023-09-18T11:27:27;3.33;;;1.70;;
61590;SDS011;71994;52.410;-1.966;2023-09-18T11:30:58;2.70;;;1.60;;
61590;SDS011;71994;52.410;-1.966;2023-09-18T11:34:10;3.25;;;1.83;;
61590;SDS011;71994;52.410;-1.966;2023-09-18T11:37:23;2.85;;;1.73;;
61590;SDS011;71994;52.410;-1.966;2023-09-18T11:40:29;2.90;;;1.60;;
61590;SDS011;71994;52.410;-1.966;2023-09-18T11:43:40;2.15;;;1.60;;
61590;SDS011;71994;52.410;-1.966;2023-09-18T11:46:47;4.25;;;1.60;;
61590;SDS011;71994;52.410;-1.966;2023-09-18T11:49:57;2.65;;;1.52;;
61590;SDS011;71994;52.410;-1.966;2023-09-18T11:53:07;3.80;;;1.50;;
61590;SDS011;71994;52.410;-1.966;2023-09-18T11:56:13;2.40;;;1.75;;
61590;SDS011;71994;52.410;-1.966;2023-09-18T11:59:33;2.30;;;1.60;;
61590;SDS011;71994;52.410;-1.966;2023-09-18T12:02:40;2.75;;;1.65;;
61590;SDS011;71994;52.410;-1.966;2023-09-18T12:05:49;2.70;;;1.60;;
61590;SDS011;71994;52.410;-1.966;2023-09-18T12:09:03;2.50;;;1.50;;
61590;SDS011;71994;52.410;-1.966;2023-09-18T12:12:11;2.13;;;1.50;;
61590;SDS011;71994;52.410;-1.966;2023-09-18T12:15:18;3.50;;;1.80;;
61590;SDS011;71994;52.410;-1.966;2023-09-18T12:18:26;2.45;;;1.55;;
61590;SDS011;71994;52.410;-1.966;2023-09-18T12:21:32;3.00;;;1.25;;
61590;SDS011;71994;52.410;-1.966;2023-09-18T12:24:48;2.88;;;1.30;;
61590;SDS011;71994;52.410;-1.966;2023-09-18T12:27:55;1.67;;;1.17;;
61590;SDS011;71994;52.410;-1.966;2023-09-18T12:31:02;1.48;;;1.00;;
61590;SDS011;71994;52.410;-1.966;2023-09-18T12:34:13;3.50;;;1.40;;
61590;SDS011;71994;52.410;-1.966;2023-09-18T12:40:29;2.38;;;1.30;;
61590;SDS011;71994;52.410;-1.966;2023-09-18T12:43:37;1.65;;;1.20;;
61590;SDS011;71994;52.410;-1.966;2023-09-18T12:46:44;1.98;;;1.30;;
61590;SDS011;71994;52.410;-1.966;2023-09-18T12:49:53;2.90;;;1.40;;
61590;SDS011;71994;52.410;-1.966;2023-09-18T12:53:10;2.38;;;1.20;;
61590;SDS011;71994;52.410;-1.966;2023-09-18T12:56:21;1.95;;;1.20;;
61590;SDS011;71994;52.410;-1.966;2023-09-18T12:59:30;1.77;;;1.08;;
61590;SDS011;71994;52.410;-1.966;2023-09-18T13:02:38;2.13;;;1.10;;
61590;SDS011;71994;52.410;-1.966;2023-09-18T13:05:45;2.30;;;1.20;;
61590;SDS011;71994;52.410;-1.966;2023-09-18T13:08:52;2.80;;;1.13;;
61590;SDS011;71994;52.410;-1.966;2023-09-18T13:12:01;1.63;;;1.10;;
61590;SDS011;71994;52.410;-1.966;2023-09-18T13:15:08;1.70;;;1.20;;
61590;SDS011;71994;52.410;-1.966;2023-09-18T13:18:15;2.17;;;1.20;;
61590;SDS011;71994;52.410;-1.966;2023-09-18T13:21:22;2.17;;;1.20;;
61590;SDS011;71994;52.410;-1.966;2023-09-18T13:24:28;1.80;;;1.10;;
61590;SDS011;71994;52.410;-1.966;2023-09-18T13:27:39;2.08;;;1.20;;
61590;SDS011;71994;52.410;-1.966;2023-09-18T13:30:45;1.60;;;1.10;;
61590;SDS011;71994;52.410;-1.966;2023-09-18T13:33:52;1.98;;;1.23;;
61590;SDS011;71994;52.410;-1.966;2023-09-18T13:37:01;2.90;;;1.10;;
61590;SDS011;71994;52.410;-1.966;2023-09-18T13:40:08;1.80;;;0.90;;
61590;SDS011;71994;52.410;-1.966;2023-09-18T13:43:18;1.92;;;1.20;;
61590;SDS011;71994;52.410;-1.966;2023-09-18T13:46:24;1.60;;;1.00;;
61590;SDS011;71994;52.410;-1.966;2023-09-18T13:49:30;1.70;;;1.10;;
61590;SDS011;71994;52.410;-1.966;2023-09-18T13:52:37;1.30;;;0.90;;
61590;SDS011;71994;52.410;-1.966;2023-09-18T13:55:43;2.17;;;0.90;;
61590;SDS011;71994;52.410;-1.966;2023-09-18T13:58:59;1.20;;;0.90;;
61590;SDS011;71994;52.410;-1.966;2023-09-18T14:02:05;1.85;;;1.00;;
61590;SDS011;71994;52.410;-1.966;2023-09-18T14:05:12;2.10;;;0.95;;
61590;SDS011;71994;52.410;-1.966;2023-09-18T14:08:28;3.05;;;1.30;;
61590;SDS011;71994;52.410;-1.966;2023-09-18T14:11:34;2.10;;;1.00;;
61590;SDS011;71994;52.410;-1.966;2023-09-18T14:14:43;2.08;;;1.10;;
61590;SDS011;71994;52.410;-1.966;2023-09-18T14:17:50;2.60;;;1.10;;
61590;SDS011;71994;52.410;-1.966;2023-09-18T14:20:56;1.35;;;0.88;;
61590;SDS011;71994;52.410;-1.966;2023-09-18T14:24:03;2.38;;;1.08;;
61590;SDS011;71994;52.410;-1.966;2023-09-18T14:27:10;2.28;;;1.00;;
61590;SDS011;71994;52.410;-1.966;2023-09-18T14:30:19;3.40;;;0.85;;
61590;SDS011;71994;52.410;-1.966;2023-09-18T14:33:32;3.75;;;0.95;;
61590;SDS011;71994;52.410;-1.966;2023-09-18T14:36:38;2.88;;;1.00;;
61590;SDS011;71994;52.410;-1.966;2023-09-18T14:39:45;3.58;;;1.05;;
61590;SDS011;71994;52.410;-1.966;2023-09-18T14:42:51;4.07;;;1.10;;
61590;SDS011;71994;52.410;-1.966;2023-09-18T14:46:00;4.53;;;1.05;;
61590;SDS011;71994;52.410;-1.966;2023-09-18T14:49:07;2.97;;;0.98;;
61590;SDS011;71994;52.410;-1.966;2023-09-18T14:52:13;2.97;;;0.90;;
61590;SDS011;71994;52.410;-1.966;2023-09-18T14:55:21;3.35;;;1.05;;
61590;SDS011;71994;52.410;-1.966;2023-09-18T14:58:27;3.20;;;1.15;;
61590;SDS011;71994;52.410;-1.966;2023-09-18T15:01:36;2.55;;;0.90;;
61590;SDS011;71994;52.410;-1.966;2023-09-18T15:04:45;2.72;;;0.77;;
61590;SDS011;71994;52.410;-1.966;2023-09-18T15:07:51;2.65;;;0.88;;
61590;SDS011;71994;52.410;-1.966;2023-09-18T15:10:58;4.43;;;1.00;;
61590;SDS011;71994;52.410;-1.966;2023-09-18T15:14:06;2.22;;;1.00;;
61590;SDS011;71994;52.410;-1.966;2023-09-18T15:17:15;3.67;;;0.98;;
61590;SDS011;71994;52.410;-1.966;2023-09-18T15:20:21;2.55;;;0.98;;
61590;SDS011;71994;52.410;-1.966;2023-09-18T15:23:28;2.58;;;1.00;;
61590;SDS011;71994;52.410;-1.966;2023-09-18T15:26:35;2.85;;;1.08;;
61590;SDS011;71994;52.410;-1.966;2023-09-18T15:29:41;3.15;;;0.98;;
61590;SDS011;71994;52.410;-1.966;2023-09-18T15:32:50;4.05;;;1.00;;
61590;SDS011;71994;52.410;-1.966;2023-09-18T15:35:58;6.18;;;0.98;;
61590;SDS011;71994;52.410;-1.966;2023-09-18T15:39:04;4.25;;;0.88;;
61590;SDS011;71994;52.410;-1.966;2023-09-18T15:42:11;3.72;;;1.00;;
61590;SDS011;71994;52.410;-1.966;2023-09-18T15:45:17;4.45;;;1.15;;
61590;SDS011;71994;52.410;-1.966;2023-09-18T15:48:27;3.20;;;1.20;;
61590;SDS011;71994;52.410;-1.966;2023-09-18T15:51:33;3.60;;;0.90;;
61590;SDS011;71994;52.410;-1.966;2023-09-18T15:54:40;4.05;;;0.88;;
61590;SDS011;71994;52.410;-1.966;2023-09-18T15:57:46;2.03;;;0.80;;
61590;SDS011;71994;52.410;-1.966;2023-09-18T16:00:57;2.45;;;1.20;;
61590;SDS011;71994;52.410;-1.966;2023-09-18T16:04:08;2.33;;;1.00;;
61590;SDS011;71994;52.410;-1.966;2023-09-18T16:07:14;3.07;;;1.10;;
61590;SDS011;71994;52.410;-1.966;2023-09-18T16:10:21;1.85;;;1.00;;
61590;SDS011;71994;52.410;-1.966;2023-09-18T16:13:27;2.88;;;0.90;;
61590;SDS011;71994;52.410;-1.966;2023-09-18T16:16:33;3.35;;;1.00;;
61590;SDS011;71994;52.410;-1.966;2023-09-18T16:19:43;4.20;;;0.90;;
61590;SDS011;71994;52.410;-1.966;2023-09-18T16:22:49;2.20;;;0.80;;
61590;SDS011;71994;52.410;-1.966;2023-09-18T16:25:56;3.30;;;0.90;;
61590;SDS011;71994;52.410;-1.966;2023-09-18T16:29:02;2.00;;;0.90;;
61590;SDS011;71994;52.410;-1.966;2023-09-18T16:32:09;1.90;;;0.73;;
61590;SDS011;71994;52.410;-1.966;2023-09-18T16:35:18;4.72;;;1.00;;
61590;SDS011;71994;52.410;-1.966;2023-09-18T16:38:24;3.73;;;0.83;;
61590;SDS011;71994;52.410;-1.966;2023-09-18T16:41:30;2.72;;;1.00;;
61590;SDS011;71994;52.410;-1.966;2023-09-18T16:44:37;3.03;;;1.05;;
61590;SDS011;71994;52.410;-1.966;2023-09-18T16:47:45;2.15;;;0.90;;
61590;SDS011;71994;52.410;-1.966;2023-09-18T16:50:57;1.75;;;0.85;;
61590;SDS011;71994;52.410;-1.966;2023-09-18T16:54:06;1.95;;;0.80;;
61590;SDS011;71994;52.410;-1.966;2023-09-18T16:57:12;2.95;;;1.10;;
61590;SDS011;71994;52.410;-1.966;2023-09-18T17:00:19;3.15;;;0.95;;
61590;SDS011;71994;52.410;-1.966;2023-09-18T17:03:25;3.80;;;1.10;;
61590;SDS011;71994;52.410;-1.966;2023-09-18T17:06:35;3.28;;;0.90;;
61590;SDS011;71994;52.410;-1.966;2023-09-18T17:09:57;2.75;;;0.95;;
61590;SDS011;71994;52.410;-1.966;2023-09-18T17:13:08;3.67;;;1.00;;
61590;SDS011;71994;52.410;-1.966;2023-09-18T17:16:15;1.98;;;0.73;;
61590;SDS011;71994;52.410;-1.966;2023-09-18T17:19:22;2.60;;;0.88;;
61590;SDS011;71994;52.410;-1.966;2023-09-18T17:22:31;1.73;;;0.70;;
61590;SDS011;71994;52.410;-1.966;2023-09-18T17:25:37;1.67;;;0.70;;
61590;SDS011;71994;52.410;-1.966;2023-09-18T17:28:43;2.42;;;0.70;;
61590;SDS011;71994;52.410;-1.966;2023-09-18T17:31:50;3.40;;;0.80;;
61590;SDS011;71994;52.410;-1.966;2023-09-18T17:34:56;2.33;;;0.90;;
61590;SDS011;71994;52.410;-1.966;2023-09-18T17:38:05;4.63;;;1.00;;
61590;SDS011;71994;52.410;-1.966;2023-09-18T17:41:12;3.65;;;1.10;;
61590;SDS011;71994;52.410;-1.966;2023-09-18T17:44:18;3.35;;;0.90;;
61590;SDS011;71994;52.410;-1.966;2023-09-18T17:47:24;2.58;;;0.90;;
61590;SDS011;71994;52.410;-1.966;2023-09-18T17:50:30;2.47;;;0.80;;
61590;SDS011;71994;52.410;-1.966;2023-09-18T17:53:39;3.20;;;0.90;;
61590;SDS011;71994;52.410;-1.966;2023-09-18T17:56:46;2.20;;;0.77;;
61590;SDS011;71994;52.410;-1.966;2023-09-18T17:59:52;3.47;;;0.93;;
61590;SDS011;71994;52.410;-1.966;2023-09-18T18:03:00;2.35;;;0.85;;
61590;SDS011;71994;52.410;-1.966;2023-09-18T18:06:07;2.33;;;0.70;;
61590;SDS011;71994;52.410;-1.966;2023-09-18T18:09:17;1.42;;;0.60;;
61590;SDS011;71994;52.410;-1.966;2023-09-18T18:12:24;2.60;;;0.90;;
61590;SDS011;71994;52.410;-1.966;2023-09-18T18:15:30;2.53;;;0.80;;
61590;SDS011;71994;52.410;-1.966;2023-09-18T18:18:41;1.77;;;0.88;;
61590;SDS011;71994;52.410;-1.966;2023-09-18T18:22:20;2.17;;;0.77;;
61590;SDS011;71994;52.410;-1.966;2023-09-18T18:25:29;2.00;;;0.70;;
61590;SDS011;71994;52.410;-1.966;2023-09-18T18:28:35;2.80;;;0.70;;
61590;SDS011;71994;52.410;-1.966;2023-09-18T18:31:43;1.40;;;0.70;;
61590;SDS011;71994;52.410;-1.966;2023-09-18T18:34:49;1.45;;;0.65;;
61590;SDS011;71994;52.410;-1.966;2023-09-18T18:37:55;2.78;;;0.80;;
61590;SDS011;71994;52.410;-1.966;2023-09-18T18:41:04;1.35;;;0.60;;
61590;SDS011;71994;52.410;-1.966;2023-09-18T18:44:10;2.43;;;0.63;;
61590;SDS011;71994;52.410;-1.966;2023-09-18T18:47:17;2.55;;;0.65;;
61590;SDS011;71994;52.410;-1.966;2023-09-18T18:50:23;3.72;;;0.70;;
61590;SDS011;71994;52.410;-1.966;2023-09-18T18:53:29;1.55;;;0.60;;
61590;SDS011;71994;52.410;-1.966;2023-09-18T18:56:38;2.72;;;0.80;;
61590;SDS011;71994;52.410;-1.966;2023-09-18T18:59:46;2.50;;;0.80;;
61590;SDS011;71994;52.410;-1.966;2023-09-18T19:02:55;1.53;;;0.70;;
61590;SDS011;71994;52.410;-1.966;2023-09-18T19:06:09;1.90;;;0.70;;
61590;SDS011;71994;52.410;-1.966;2023-09-18T19:09:19;1.95;;;0.70;;
61590;SDS011;71994;52.410;-1.966;2023-09-18T19:12:28;2.38;;;0.70;;